X  SluitMETAR luchtvaart weer gegevens      EHRD Rotterdam

Temperatuur

12°C Temperatuur

11°C Dauwpunt

94% Vochtigheid



Wind

 3 KM/U

 2 MPH

 1 M/S

 2 KTS



Kalm
Pal Noord
Huidig weer

Helder Helder
Luchtdruk 1007.92 (hPa) - 29.76 (in)
Zicht 6.2 (mi) - 10 (km)
Vliegveld
Vliegveld code EHRD

Locatie Rotterdam 16 (km)

Metar:
EHRD 200855Z AUTO VRB02KT 9999 NSC 12/11 Q1008 NOSIG

Tijd: 20-10-2019 10:55